Time;durP1;ratioP1;P1;durP2;ratioP2;P2;SDS_P1;SDS_P2;PMS_P1;PMS_P2;Temp;Humidity;BMP_temperature;BMP_pressure;BME280_temperature;BME280_humidity;BME280_pressure;Samples;Min_cycle;Max_cycle;Signal;HPM_P1;HPM_P2
2021/03/02 00:00:38;;;;;;;53.95;19.00;;;4.10;99.90;;;;;;4847326;29;20073;-92
2021/03/02 00:03:08;;;;;;;44.15;17.45;;;4.10;99.90;;;;;;4862446;29;20488;-92
2021/03/02 00:05:37;;;;;;;46.60;19.02;;;4.10;99.90;;;;;;4847550;29;20053;-92
2021/03/02 00:08:08;;;;;;;47.75;19.42;;;4.10;99.90;;;;;;4847822;29;20065;-90
2021/03/02 00:10:39;;;;;;;60.47;20.00;;;4.20;99.90;;;;;;4849233;29;20061;-89
2021/03/02 00:13:10;;;;;;;47.47;19.15;;;4.20;99.90;;;;;;4834171;29;20053;-90
2021/03/02 00:15:37;;;;;;;45.28;18.55;;;4.10;99.90;;;;;;4832254;29;20476;-90
2021/03/02 00:18:07;;;;;;;47.10;18.08;;;4.10;99.90;;;;;;4832475;29;20093;-92
2021/03/02 00:20:37;;;;;;;58.03;20.52;;;4.10;99.90;;;;;;4846819;29;20080;-91
2021/03/02 00:23:09;;;;;;;51.08;19.13;;;4.10;99.90;;;;;;4848114;29;20486;-88
2021/03/02 00:25:38;;;;;;;54.83;19.80;;;4.10;99.90;;;;;;4847534;29;20060;-90
2021/03/02 00:28:07;;;;;;;55.95;19.42;;;4.00;99.90;;;;;;4832244;29;20472;-90
2021/03/02 00:30:35;;;;;;;49.78;18.83;;;4.10;99.90;;;;;;4846572;29;20061;-90
2021/03/02 00:33:07;;;;;;;55.03;19.33;;;4.00;99.90;;;;;;4847586;29;20057;-89
2021/03/02 00:35:35;;;;;;;55.72;19.85;;;3.90;99.90;;;;;;4834196;29;20072;-88
2021/03/02 00:38:03;;;;;;;53.00;19.45;;;4.00;99.90;;;;;;4866204;29;20069;-88
2021/03/02 00:40:31;;;;;;;47.55;19.17;;;3.90;99.90;;;;;;4834011;29;20068;-89
2021/03/02 00:42:58;;;;;;;53.53;19.02;;;3.90;99.90;;;;;;4835064;29;20068;-88
2021/03/02 00:45:25;;;;;;;46.17;17.75;;;3.90;99.90;;;;;;4849582;29;20410;-92
2021/03/02 00:47:53;;;;;;;44.13;17.33;;;3.90;99.90;;;;;;4847446;29;20068;-90
2021/03/02 00:50:23;;;;;;;45.57;17.60;;;3.80;99.90;;;;;;4847772;29;20388;-91
2021/03/02 00:52:51;;;;;;;40.55;17.75;;;3.80;99.90;;;;;;4847744;29;20061;-90
2021/03/02 00:55:19;;;;;;;40.85;17.08;;;3.80;99.90;;;;;;4846539;29;20456;-90
2021/03/02 00:57:47;;;;;;;40.53;16.00;;;3.70;99.90;;;;;;4848157;29;20416;-90
2021/03/02 01:00:19;;;;;;;44.78;16.30;;;3.80;99.90;;;;;;4847979;29;20058;-90
2021/03/02 01:02:46;;;;;;;40.83;16.37;;;3.80;99.90;;;;;;4843919;29;20276;-89
2021/03/02 01:05:15;;;;;;;39.35;14.55;;;3.80;99.90;;;;;;4859921;29;20312;-90
2021/03/02 01:07:45;;;;;;;37.13;15.32;;;3.90;99.90;;;;;;4862051;29;20061;-89
2021/03/02 01:10:17;;;;;;;33.85;14.68;;;3.90;99.90;;;;;;4866915;29;20037;-88
2021/03/02 01:15:41;;;;;;;38.28;16.05;;;3.80;99.90;;;;;;5090494;23;20045;-89
2021/03/02 01:18:08;;;;;;;37.30;15.50;;;3.70;99.90;;;;;;4845753;29;20403;-89
2021/03/02 01:20:35;;;;;;;40.78;16.35;;;3.60;99.90;;;;;;4843766;29;20053;-90
2021/03/02 01:23:03;;;;;;;39.92;15.82;;;3.60;99.90;;;;;;4842968;29;20071;-89
2021/03/02 01:25:30;;;;;;;38.60;15.35;;;3.60;99.90;;;;;;4872291;29;20468;-90
2021/03/02 01:27:57;;;;;;;36.58;15.35;;;3.60;99.90;;;;;;4854318;29;20068;-89
2021/03/02 01:30:29;;;;;;;36.42;15.35;;;3.60;99.90;;;;;;4841281;29;20061;-89
2021/03/02 01:32:57;;;;;;;39.50;16.67;;;3.60;99.90;;;;;;4854139;29;20081;-90
2021/03/02 01:35:24;;;;;;;37.67;14.47;;;3.50;99.90;;;;;;4842917;29;20061;-88
2021/03/02 02:14:42;;;;;;;34.13;14.40;;;2.90;99.90;;;;;;5462470;23;20266;-92
2021/03/02 02:17:18;;;;;;;39.03;14.23;;;2.90;99.90;;;;;;4843622;29;20053;-93
2021/03/02 02:19:48;;;;;;;32.60;14.50;;;2.90;99.90;;;;;;4844703;29;20068;-94
2021/03/02 02:22:34;;;;;;;29.83;12.27;;;2.90;99.90;;;;;;4854295;29;20057;-93
2021/03/02 02:25:16;;;;;;;29.50;13.27;;;3.00;99.90;;;;;;4858010;29;20057;-94
2021/03/02 02:27:49;;;;;;;29.43;12.20;;;2.90;99.90;;;;;;4838404;29;20388;-94
2021/03/02 02:30:19;;;;;;;29.30;13.13;;;2.90;99.90;;;;;;4853901;29;20068;-95
2021/03/02 02:32:49;;;;;;;32.93;13.20;;;2.90;99.90;;;;;;4841022;29;20061;-95
2021/03/02 02:35:18;;;;;;;26.20;12.67;;;3.00;99.90;;;;;;4846577;29;20054;-95
2021/03/02 02:37:59;;;;;;;30.80;15.27;;;2.90;99.90;;;;;;4870008;29;20064;-96
2021/03/02 02:40:27;;;;;;;31.88;15.23;;;2.90;99.90;;;;;;4852269;29;20061;-96
2021/03/02 02:42:56;;;;;;;28.23;13.80;;;2.80;99.90;;;;;;4851052;29;20392;-96
2021/03/02 02:45:32;;;;;;;30.40;13.77;;;2.90;99.90;;;;;;4867836;29;20052;-96
2021/03/02 02:48:00;;;;;;;30.27;13.27;;;2.90;99.90;;;;;;4851237;29;20058;-96
2021/03/02 02:50:29;;;;;;;31.57;15.03;;;2.90;99.90;;;;;;4870753;29;20054;-96
2021/03/02 02:52:59;;;;;;;28.50;13.60;;;2.90;99.90;;;;;;4855163;29;20293;-96
2021/03/02 02:55:32;;;;;;;32.63;14.63;;;3.00;99.90;;;;;;4854526;29;20050;-95
2021/03/02 02:58:05;;;;;;;30.70;14.93;;;3.10;99.90;;;;;;4885808;29;20060;-96
2021/03/02 03:00:34;;;;;;;30.55;14.05;;;3.10;99.90;;;;;;4870033;29;20044;-95
2021/03/02 03:03:08;;;;;;;27.10;13.55;;;3.20;99.90;;;;;;4839748;29;20067;-95
2021/03/02 03:05:36;;;;;;;26.83;13.85;;;3.10;99.90;;;;;;4838701;29;20038;-96
2021/03/02 03:08:10;;;;;;;27.25;13.50;;;3.10;99.90;;;;;;4855604;29;20044;-96
2021/03/02 03:10:39;;;;;;;26.63;12.57;;;3.10;99.90;;;;;;4886002;29;20060;-96
2021/03/02 03:13:11;;;;;;;28.08;13.05;;;3.20;99.90;;;;;;4870120;29;20057;-96
2021/03/02 03:15:39;;;;;;;28.80;14.13;;;3.20;99.90;;;;;;4855376;29;20054;-96
2021/03/02 03:18:09;;;;;;;29.42;13.80;;;3.10;99.90;;;;;;4869239;29;20063;-95
2021/03/02 03:20:39;;;;;;;26.80;12.07;;;3.10;99.90;;;;;;4881339;29;20068;-93
2021/03/02 03:23:08;;;;;;;36.77;13.07;;;3.20;99.90;;;;;;4866288;29;20057;-92
2021/03/02 03:25:35;;;;;;;31.25;12.85;;;3.10;99.90;;;;;;4855439;29;20044;-92
2021/03/02 03:28:06;;;;;;;35.78;15.23;;;3.00;99.90;;;;;;4885925;29;20034;-94
2021/03/02 03:30:37;;;;;;;34.13;13.53;;;3.00;99.90;;;;;;4856187;29;20049;-96
2021/03/02 03:33:08;;;;;;;31.20;13.40;;;3.00;99.90;;;;;;4870679;29;20057;-93
2021/03/02 03:35:36;;;;;;;32.07;12.73;;;2.90;99.90;;;;;;4862310;29;20049;-96
2021/03/02 03:38:05;;;;;;;25.40;12.37;;;2.90;99.90;;;;;;4833981;29;20061;-95
2021/03/02 03:40:34;;;;;;;28.70;13.20;;;2.90;99.90;;;;;;4854373;29;20061;-96
2021/03/02 03:43:01;;;;;;;27.25;12.15;;;2.80;99.90;;;;;;4855754;29;20033;-95
2021/03/02 03:45:28;;;;;;;27.43;13.67;;;2.70;99.90;;;;;;4868010;29;20047;-96
2021/03/02 03:47:59;;;;;;;33.38;13.63;;;3.00;99.90;;;;;;4878720;29;20066;-95
2021/03/02 03:50:26;;;;;;;31.80;13.38;;;2.90;99.90;;;;;;4863741;29;20054;-95
2021/03/02 03:52:59;;;;;;;36.07;14.37;;;3.00;99.90;;;;;;4850634;29;20068;-95
2021/03/02 03:55:31;;;;;;;31.20;14.53;;;2.90;99.90;;;;;;4865787;29;20064;-95
2021/03/02 03:57:59;;;;;;;31.73;14.80;;;2.80;99.90;;;;;;4853837;29;20056;-96
2021/03/02 04:00:27;;;;;;;29.83;13.40;;;3.00;99.90;;;;;;4885072;29;20052;-95
2021/03/02 04:02:55;;;;;;;26.77;13.55;;;3.00;99.90;;;;;;4852399;29;20049;-96
2021/03/02 04:05:26;;;;;;;28.03;12.90;;;3.10;99.90;;;;;;4882649;29;20053;-95
2021/03/02 04:07:53;;;;;;;23.70;11.17;;;3.20;99.90;;;;;;4866011;29;20068;-94
2021/03/02 04:10:22;;;;;;;25.10;12.17;;;3.20;99.90;;;;;;4836083;29;20065;-94
2021/03/02 04:12:49;;;;;;;;;;;3.20;99.90;;;;;;4869409;29;20065;-94
2021/03/02 04:15:17;;;;;;;24.20;11.37;;;3.10;99.90;;;;;;4870011;29;19908;-93
2021/03/02 04:17:50;;;;;;;27.30;11.05;;;3.00;99.90;;;;;;4850910;29;20054;-95
2021/03/02 04:28:45;;;;;;;26.47;11.53;;;2.70;99.90;;;;;;5826880;23;20024;-93
2021/03/02 04:31:13;;;;;;;28.30;12.32;;;2.60;99.90;;;;;;4869979;29;20076;-93
2021/03/02 04:33:40;;;;;;;25.60;11.90;;;2.70;99.90;;;;;;4848705;29;20057;-94
2021/03/02 04:36:08;;;;;;;26.50;12.53;;;2.70;99.90;;;;;;4868991;29;20045;-96
2021/03/02 04:38:35;;;;;;;31.38;13.68;;;2.70;99.90;;;;;;4869803;29;20055;-96
2021/03/02 04:41:03;;;;;;;24.37;12.00;;;2.70;99.90;;;;;;4854216;29;20041;-96
2021/03/02 04:43:30;;;;;;;30.60;13.03;;;2.70;99.90;;;;;;4852939;29;20033;-96
2021/03/02 04:45:58;;;;;;;30.10;12.67;;;2.80;99.90;;;;;;4866925;29;20060;-96
2021/03/02 04:48:26;;;;;;;25.60;12.43;;;2.80;99.90;;;;;;4865612;29;20061;-95
2021/03/02 04:50:53;;;;;;;27.60;13.00;;;2.80;99.90;;;;;;4851224;29;20057;-95
2021/03/02 04:53:21;;;;;;;31.97;13.17;;;2.80;99.90;;;;;;4851200;29;20061;-95
2021/03/02 04:55:48;;;;;;;30.13;13.50;;;2.90;99.90;;;;;;4881314;29;20058;-96
2021/03/02 04:58:16;;;;;;;36.90;12.57;;;3.00;99.90;;;;;;4853261;29;20046;-95
2021/03/02 05:00:49;;;;;;;27.85;12.77;;;3.10;99.90;;;;;;4869005;29;20033;-95
2021/03/02 05:03:17;;;;;;;25.63;12.13;;;3.00;99.90;;;;;;4868673;29;20044;-96
2021/03/02 05:05:45;;;;;;;31.55;15.50;;;2.90;99.90;;;;;;4868100;29;20033;-95
2021/03/02 05:08:16;;;;;;;37.53;16.38;;;2.90;99.90;;;;;;4851874;29;20057;-96
2021/03/02 05:10:43;;;;;;;27.33;12.80;;;2.90;99.90;;;;;;4866265;29;20061;-95
2021/03/02 05:13:10;;;;;;;29.50;13.45;;;2.80;99.90;;;;;;4850158;29;20064;-94
2021/03/02 05:18:42;;;;;;;28.42;13.27;;;3.00;99.90;;;;;;5044178;23;20053;-95
2021/03/02 05:21:10;;;;;;;25.80;12.65;;;3.10;99.90;;;;;;4848257;29;20514;-96
2021/03/02 05:23:38;;;;;;;27.63;12.83;;;3.20;99.90;;;;;;4863704;29;20067;-96
2021/03/02 05:26:06;;;;;;;25.52;12.10;;;3.20;99.90;;;;;;4865277;29;20049;-96
2021/03/02 05:28:33;;;;;;;25.40;12.10;;;3.10;99.90;;;;;;4849693;29;20057;-96
2021/03/02 05:31:00;;;;;;;27.60;12.07;;;3.10;99.90;;;;;;4850689;29;20041;-95
2021/03/02 05:33:28;;;;;;;26.50;11.80;;;3.00;99.90;;;;;;4851144;29;20068;-96
2021/03/02 05:35:56;;;;;;;26.33;11.97;;;3.00;99.90;;;;;;4869573;29;20057;-96
2021/03/02 05:38:23;;;;;;;28.38;12.05;;;3.00;99.90;;;;;;4855864;29;20045;-96
2021/03/02 05:40:53;;;;;;;24.63;12.20;;;3.00;99.90;;;;;;4856788;29;20068;-96
2021/03/02 05:43:20;;;;;;;23.87;11.40;;;3.00;99.90;;;;;;4856718;29;20051;-95
2021/03/02 05:45:49;;;;;;;24.00;10.77;;;3.00;99.90;;;;;;4872160;29;20044;-96
2021/03/02 05:48:18;;;;;;;25.65;11.45;;;2.90;99.90;;;;;;4856655;29;20068;-96
2021/03/02 05:50:46;;;;;;;26.77;12.40;;;2.90;99.90;;;;;;4871808;29;20050;-96
2021/03/02 05:53:15;;;;;;;23.85;11.30;;;3.00;99.90;;;;;;4871025;29;20046;-94
2021/03/02 05:55:43;;;;;;;23.20;11.35;;;3.00;99.90;;;;;;4870752;29;20041;-96
2021/03/02 05:58:11;;;;;;;23.38;11.18;;;2.90;99.90;;;;;;4854270;29;20041;-96
2021/03/02 06:00:39;;;;;;;23.77;10.43;;;3.00;99.90;;;;;;4855227;29;20057;-95
2021/03/02 06:03:07;;;;;;;25.93;11.97;;;3.00;99.90;;;;;;4855280;29;20043;-96
2021/03/02 06:05:35;;;;;;;23.08;11.07;;;3.10;99.90;;;;;;4870241;29;20092;-96
2021/03/02 06:08:02;;;;;;;21.60;10.43;;;3.10;99.90;;;;;;4854498;29;20058;-95
2021/03/02 06:10:33;;;;;;;22.70;10.75;;;3.10;99.90;;;;;;4854609;29;20038;-95
2021/03/02 06:13:02;;;;;;;21.37;10.63;;;3.00;99.90;;;;;;4856159;29;20053;-96
2021/03/02 06:15:31;;;;;;;26.17;11.13;;;3.10;99.90;;;;;;4852696;29;20067;-96
2021/03/02 06:18:09;;;;;;;22.60;10.63;;;3.00;99.90;;;;;;4830282;29;20075;-94
2021/03/02 06:20:37;;;;;;;21.17;9.55;;;3.00;99.90;;;;;;4847442;29;20058;-94
2021/03/02 06:31:53;;;;;;;30.23;12.10;;;2.70;99.90;;;;;;5768650;23;20041;-94
2021/03/02 06:34:21;;;;;;;23.00;11.02;;;2.80;99.90;;;;;;4853018;29;20057;-94
2021/03/02 06:36:59;;;;;;;24.47;11.70;;;2.80;99.90;;;;;;4862978;29;20054;-95
2021/03/02 06:39:31;;;;;;;25.50;11.27;;;2.90;99.90;;;;;;4846877;29;20376;-96
2021/03/02 06:42:17;;;;;;;27.63;13.57;;;2.90;99.90;;;;;;4850375;29;20067;-95
2021/03/02 06:57:01;;;;;;;20.97;9.43;;;2.80;99.90;;;;;;5920967;23;20024;-94
2021/03/02 06:59:30;;;;;;;22.63;10.57;;;2.60;99.90;;;;;;4851552;29;20057;-95
2021/03/02 07:01:57;;;;;;;24.53;11.57;;;2.70;99.90;;;;;;4868689;29;20063;-96
2021/03/02 07:04:29;;;;;;;32.37;11.30;;;2.80;99.90;;;;;;4869400;29;20056;-93
2021/03/02 07:10:05;;;;;;;23.27;11.67;;;2.90;99.90;;;;;;4999948;23;20054;-95
2021/03/02 07:12:36;;;;;;;34.27;14.33;;;3.00;99.90;;;;;;4880381;29;20116;-95
2021/03/02 07:15:11;;;;;;;26.53;11.23;;;3.10;99.90;;;;;;4948436;23;20038;-91
2021/03/02 07:20:40;;;;;;;28.92;13.00;;;3.30;99.90;;;;;;4865939;29;20072;-96
2021/03/02 07:26:11;;;;;;;24.20;11.67;;;3.40;99.90;;;;;;4865873;29;20049;-96
2021/03/02 07:34:18;;;;;;;34.23;11.43;;;3.20;99.90;;;;;;5057087;23;20029;-94
2021/03/02 07:39:59;;;;;;;25.43;11.23;;;3.20;99.90;;;;;;5110799;23;20050;-96
2021/03/02 07:42:28;;;;;;;26.80;10.83;;;3.10;99.90;;;;;;4883954;29;20045;-96
2021/03/02 07:45:09;;;;;;;27.73;11.73;;;2.90;99.90;;;;;;4869271;29;20040;-96
2021/03/02 07:47:46;;;;;;;36.90;11.93;;;3.20;99.90;;;;;;4864362;29;20041;-95
2021/03/02 07:50:25;;;;;;;24.93;11.77;;;3.40;99.90;;;;;;4900606;23;20068;-96
2021/03/02 07:53:22;;;;;;;30.63;13.37;;;3.60;99.90;;;;;;4850987;29;20033;-96
2021/03/02 07:56:20;;;;;;;28.10;10.30;;;3.70;99.90;;;;;;4858532;29;20439;-96
2021/03/02 07:59:16;;;;;;;27.50;12.17;;;3.70;99.90;;;;;;4851371;29;20384;-93
2021/03/02 08:01:44;;;;;;;34.20;13.47;;;3.70;99.90;;;;;;4865094;29;20063;-96
2021/03/02 08:04:27;;;;;;;25.23;12.50;;;3.80;99.90;;;;;;4861013;29;20067;-96
2021/03/02 08:07:22;;;;;;;28.25;13.07;;;3.70;99.90;;;;;;4840951;29;20053;-96
2021/03/02 08:09:51;;;;;;;28.88;12.93;;;3.90;99.90;;;;;;4847033;29;20057;-96
2021/03/02 08:12:34;;;;;;;32.13;13.52;;;4.00;99.90;;;;;;4853286;29;20042;-95
2021/03/02 08:15:23;;;;;;;23.10;11.38;;;4.20;99.90;;;;;;4853520;29;20060;-96
2021/03/02 08:21:11;;;;;;;25.98;10.20;;;4.60;99.90;;;;;;5187446;23;19914;-95
2021/03/02 08:23:51;;;;;;;25.00;10.98;;;4.80;99.90;;;;;;4854205;29;20051;-96
2021/03/02 08:26:25;;;;;;;24.77;10.60;;;5.00;99.90;;;;;;4868197;29;20061;-95
2021/03/02 08:29:12;;;;;;;23.35;10.93;;;4.90;99.90;;;;;;5033342;23;20037;-96
2021/03/02 08:31:43;;;;;;;23.20;11.13;;;5.00;99.90;;;;;;4852744;29;20078;-96
2021/03/02 08:34:12;;;;;;;24.92;10.75;;;5.00;99.90;;;;;;4852532;29;20046;-95
2021/03/02 08:39:36;;;;;;;27.00;11.90;;;5.10;99.90;;;;;;4884982;23;19912;-96
2021/03/02 08:45:05;;;;;;;24.58;10.73;;;5.20;99.90;;;;;;5376921;23;20041;-96
2021/03/02 08:47:39;;;;;;;19.05;10.40;;;5.20;99.90;;;;;;4974628;23;20057;-96
2021/03/02 08:50:08;;;;;;;18.33;9.52;;;5.10;99.90;;;;;;4852325;29;20053;-96
2021/03/02 08:52:41;;;;;;;28.75;10.60;;;5.10;99.90;;;;;;4867304;29;20048;-95
2021/03/02 08:55:12;;;;;;;24.25;10.45;;;5.10;99.90;;;;;;4864195;29;20054;-94
2021/03/02 08:57:43;;;;;;;24.60;10.25;;;4.90;99.90;;;;;;4864601;29;20049;-96
2021/03/02 09:00:16;;;;;;;22.90;10.57;;;4.90;99.90;;;;;;4860283;29;20057;-96
2021/03/02 09:02:45;;;;;;;28.50;10.18;;;4.80;99.90;;;;;;4867163;29;20042;-95
2021/03/02 09:05:16;;;;;;;22.45;9.60;;;5.10;99.90;;;;;;4853355;29;20057;-96
2021/03/02 09:08:07;;;;;;;19.85;9.82;;;5.30;99.90;;;;;;4867482;29;20073;-95
2021/03/02 09:10:36;;;;;;;21.25;10.25;;;5.40;99.90;;;;;;4855596;29;20060;-96
2021/03/02 09:13:06;;;;;;;16.92;8.80;;;5.70;99.90;;;;;;4856146;29;20052;-96
2021/03/02 09:18:29;;;;;;;17.85;9.82;;;6.10;99.90;;;;;;5249120;23;20053;-96
2021/03/02 09:20:56;;;;;;;22.65;10.30;;;6.20;99.90;;;;;;4854491;29;20063;-96
2021/03/02 09:23:26;;;;;;;18.90;9.40;;;6.30;99.90;;;;;;4869798;29;20034;-96
2021/03/02 09:25:55;;;;;;;19.83;9.50;;;6.40;99.90;;;;;;4869611;29;20037;-96
2021/03/02 09:28:23;;;;;;;19.13;9.55;;;6.50;99.90;;;;;;4869706;29;20056;-96
2021/03/02 09:30:50;;;;;;;20.23;10.20;;;6.40;99.90;;;;;;4871024;29;20046;-96
2021/03/02 09:33:18;;;;;;;29.35;10.05;;;6.40;99.90;;;;;;4856723;29;20044;-96
2021/03/02 09:35:46;;;;;;;25.48;10.13;;;6.40;99.90;;;;;;4856377;29;20063;-96
2021/03/02 09:44:32;;;;;;;28.65;10.82;;;6.50;99.90;;;;;;4892257;23;20054;-96
2021/03/02 09:47:03;;;;;;;21.33;10.63;;;6.70;99.90;;;;;;4882707;29;20058;-96
2021/03/02 09:49:52;;;;;;;27.40;11.30;;;6.90;99.90;;;;;;4855523;29;20051;-96
2021/03/02 09:52:30;;;;;;;24.33;11.23;;;6.70;99.90;;;;;;4847077;29;20041;-96
2021/03/02 09:55:16;;;;;;;22.90;10.82;;;6.90;99.90;;;;;;4855612;29;20064;-96
2021/03/02 09:57:58;;;;;;;24.48;11.07;;;7.20;99.90;;;;;;4868413;29;20060;-96
2021/03/02 10:00:32;;;;;;;20.38;11.52;;;7.40;99.90;;;;;;4864891;29;20057;-96
2021/03/02 10:03:04;;;;;;;22.73;10.93;;;7.50;99.90;;;;;;4866742;29;20057;-96
2021/03/02 10:05:37;;;;;;;22.40;11.48;;;7.50;99.90;;;;;;4871057;29;20068;-96
2021/03/02 10:08:22;;;;;;;28.40;11.27;;;7.80;99.90;;;;;;5008873;23;20460;-95
2021/03/02 10:10:51;;;;;;;20.75;11.77;;;8.00;99.90;;;;;;4883366;29;20049;-96
2021/03/02 10:13:27;;;;;;;21.85;11.13;;;8.30;99.90;;;;;;4884843;29;20058;-96
2021/03/02 10:16:29;;;;;;;24.92;10.55;;;8.70;99.90;;;;;;4871631;29;20053;-96
2021/03/02 10:19:00;;;;;;;22.58;11.77;;;9.00;99.90;;;;;;4870643;29;20048;-95
2021/03/02 10:21:29;;;;;;;29.70;10.88;;;9.00;99.90;;;;;;5156510;23;20050;-93
2021/03/02 10:26:55;;;;;;;26.52;11.80;;;9.20;99.90;;;;;;5256425;23;20053;-93
2021/03/02 10:29:23;;;;;;;23.90;12.52;;;9.40;99.90;;;;;;5095143;23;20041;-93
2021/03/02 10:38:30;;;;;;;24.40;10.77;;;9.90;99.90;;;;;;5905382;23;20024;31
2021/03/02 10:41:01;;;;;;;23.33;10.48;;;11.10;99.90;;;;;;5189815;24;20253;-91
2021/03/02 10:43:38;;;;;;;20.58;10.45;;;12.60;99.90;;;;;;4821169;29;20046;-92
2021/03/02 10:46:24;;;;;;;23.75;10.32;;;13.60;94.20;;;;;;4849786;29;20054;-92
2021/03/02 10:48:53;;;;;;;27.92;11.55;;;14.70;86.10;;;;;;4849934;29;20056;-93
2021/03/02 10:51:22;;;;;;;21.25;11.70;;;15.50;74.10;;;;;;4836808;29;20037;-93
2021/03/02 10:53:52;;;;;;;29.85;10.63;;;16.20;70.40;;;;;;4851402;29;20066;-92
2021/03/02 10:56:22;;;;;;;20.40;10.77;;;16.90;63.70;;;;;;4907166;24;20057;-93
2021/03/02 10:58:50;;;;;;;21.08;12.35;;;17.50;60.50;;;;;;4833989;29;20066;-93
2021/03/02 11:01:18;;;;;;;22.80;11.07;;;17.70;57.20;;;;;;4835086;29;20058;-92
2021/03/02 11:03:46;;;;;;;26.73;12.75;;;18.00;55.80;;;;;;4849485;29;20044;-92
2021/03/02 11:06:15;;;;;;;21.17;12.63;;;18.40;55.70;;;;;;4831733;29;20060;-93
2021/03/02 11:08:44;;;;;;;21.80;11.00;;;19.00;53.10;;;;;;4850203;29;20068;-92
2021/03/02 11:11:14;;;;;;;16.02;9.88;;;19.00;50.60;;;;;;4846228;29;20057;-93
2021/03/02 11:13:45;;;;;;;21.15;12.25;;;19.40;52.00;;;;;;4861935;29;20064;-93
2021/03/02 11:16:14;;;;;;;16.45;10.57;;;19.80;50.30;;;;;;4859504;29;20061;-93
2021/03/02 11:18:42;;;;;;;21.73;11.90;;;20.10;48.90;;;;;;4830253;29;20065;-91
2021/03/02 11:21:12;;;;;;;17.88;11.52;;;20.80;46.30;;;;;;4828100;29;20058;-92
2021/03/02 11:23:42;;;;;;;29.30;11.77;;;21.20;45.60;;;;;;4829443;29;20062;-93
2021/03/02 11:26:10;;;;;;;18.08;12.25;;;21.30;45.60;;;;;;4846843;29;20052;-92
2021/03/02 11:28:39;;;;;;;16.38;11.10;;;21.30;44.10;;;;;;4850539;29;20041;-93
2021/03/02 11:31:06;;;;;;;;;;;21.10;45.40;;;;;;4836737;29;20044;-93
2021/03/02 11:33:34;;;;;;;28.40;12.03;;;21.40;45.30;;;;;;4835648;29;19938;-93
2021/03/02 11:36:01;;;;;;;23.52;12.52;;;21.60;44.10;;;;;;4843598;29;20046;-95
2021/03/02 11:38:30;;;;;;;25.98;10.23;;;22.30;42.50;;;;;;4838488;29;20058;-94
2021/03/02 11:40:59;;;;;;;23.80;11.50;;;22.40;43.40;;;;;;4837363;29;20057;-93
2021/03/02 11:43:27;;;;;;;30.35;11.80;;;22.70;42.50;;;;;;4827217;29;20068;-92
2021/03/02 11:45:57;;;;;;;20.33;10.10;;;23.10;42.30;;;;;;4831750;29;20064;-92
2021/03/02 11:48:25;;;;;;;17.40;9.35;;;23.50;41.20;;;;;;4846281;29;20054;-93
2021/03/02 11:50:53;;;;;;;16.70;10.15;;;23.60;40.80;;;;;;4829379;29;20042;-94
2021/03/02 11:53:21;;;;;;;31.05;12.57;;;23.40;40.90;;;;;;4829425;29;20056;-93
2021/03/02 11:55:49;;;;;;;28.20;12.75;;;23.70;39.40;;;;;;4828030;29;20066;-93
2021/03/02 11:58:17;;;;;;;19.67;12.77;;;23.60;40.90;;;;;;4829190;29;20054;-93
2021/03/02 12:00:45;;;;;;;20.10;11.90;;;23.40;39.80;;;;;;4860351;29;20072;-95
2021/03/02 12:03:13;;;;;;;21.27;12.13;;;23.70;41.00;;;;;;4829533;29;20053;-92
2021/03/02 12:05:41;;;;;;;16.73;11.50;;;23.90;40.00;;;;;;4827891;29;20058;-92
2021/03/02 12:08:09;;;;;;;18.73;11.45;;;24.30;39.40;;;;;;4828936;29;20050;-93
2021/03/02 12:10:36;;;;;;;21.23;13.27;;;24.50;38.90;;;;;;4828603;29;20528;-93
2021/03/02 12:13:06;;;;;;;23.63;12.82;;;25.10;37.60;;;;;;4843100;29;20057;-92
2021/03/02 12:15:34;;;;;;;17.55;10.60;;;24.80;38.10;;;;;;4860562;29;20068;-93
2021/03/02 12:18:01;;;;;;;17.63;11.30;;;24.80;38.20;;;;;;4843648;29;20058;-94
2021/03/02 12:20:30;;;;;;;16.13;11.57;;;24.80;38.30;;;;;;4829561;29;20053;-92
2021/03/02 12:22:58;;;;;;;18.52;11.50;;;25.40;37.50;;;;;;4843771;29;20058;-92
2021/03/02 12:25:26;;;;;;;17.45;11.18;;;26.00;36.80;;;;;;4828342;29;20060;-92
2021/03/02 12:27:54;;;;;;;21.52;11.80;;;26.60;36.30;;;;;;4843484;29;20349;-93
2021/03/02 12:30:26;;;;;;;16.63;11.00;;;26.60;35.80;;;;;;4829273;29;20058;-92
2021/03/02 12:33:04;;;;;;;20.98;11.77;;;26.40;36.20;;;;;;4834662;29;20057;-92
2021/03/02 12:35:32;;;;;;;;;;;26.70;36.10;;;;;;4848309;29;20486;-91
2021/03/02 12:38:00;;;;;;;17.33;11.18;;;26.90;35.40;;;;;;4828972;29;19924;-92
2021/03/02 12:40:27;;;;;;;;;;;26.90;35.30;;;;;;4844462;29;20058;-92
2021/03/02 12:42:54;;;;;;;17.00;11.13;;;26.70;35.80;;;;;;4843213;29;19924;-93
2021/03/02 12:45:22;;;;;;;16.97;10.73;;;26.80;35.70;;;;;;4842795;29;20062;-92
2021/03/02 12:47:49;;;;;;;24.40;11.95;;;27.40;34.60;;;;;;4861948;29;20108;-93
2021/03/02 12:50:17;;;;;;;18.38;10.68;;;27.50;35.00;;;;;;4831272;29;20067;-92
2021/03/02 12:52:46;;;;;;;17.48;9.63;;;27.80;34.50;;;;;;4846350;29;20066;-90
2021/03/02 12:55:14;;;;;;;16.85;10.95;;;28.00;34.50;;;;;;4844268;29;20058;-92
2021/03/02 12:57:44;;;;;;;13.93;10.18;;;28.00;34.10;;;;;;4829083;29;20052;-92
2021/03/02 13:00:13;;;;;;;17.30;10.05;;;28.00;34.50;;;;;;4846831;29;20050;-92
2021/03/02 13:02:46;;;;;;;27.40;11.52;;;28.40;34.00;;;;;;4849424;29;20052;-94
2021/03/02 13:05:16;;;;;;;20.08;11.20;;;27.90;33.80;;;;;;4848282;29;20042;-90
2021/03/02 13:07:47;;;;;;;17.55;11.82;;;27.70;33.90;;;;;;4848824;29;20062;-91
2021/03/02 13:10:17;;;;;;;15.20;10.02;;;27.80;34.00;;;;;;4832756;29;20062;-92
2021/03/02 13:12:46;;;;;;;49.22;16.33;;;27.80;34.40;;;;;;4844440;29;20057;-92
2021/03/02 13:15:20;;;;;;;24.38;14.38;;;28.60;33.40;;;;;;4828718;29;20064;-90
2021/03/02 13:17:48;;;;;;;20.02;12.20;;;28.60;32.90;;;;;;4827652;29;20126;-91
2021/03/02 13:20:22;;;;;;;19.05;11.27;;;28.30;33.50;;;;;;4828348;29;20042;-90
2021/03/02 13:22:55;;;;;;;30.77;14.23;;;28.00;34.00;;;;;;4992162;24;20399;-88
2021/03/02 13:25:22;;;;;;;26.40;11.45;;;28.20;33.60;;;;;;4877945;29;20057;-89
2021/03/02 13:27:55;;;;;;;24.25;10.85;;;28.40;33.40;;;;;;4847985;29;20049;-88
2021/03/02 13:30:27;;;;;;;17.48;10.73;;;28.20;33.20;;;;;;4865633;29;20067;-89
2021/03/02 13:33:05;;;;;;;18.00;10.10;;;28.50;33.30;;;;;;4869409;29;20064;-88
2021/03/02 13:35:36;;;;;;;14.80;9.98;;;28.50;32.60;;;;;;4862616;29;20060;-89
2021/03/02 13:38:17;;;;;;;12.10;9.82;;;28.80;32.10;;;;;;4859448;29;20049;-88
2021/03/02 13:40:52;;;;;;;14.25;9.10;;;28.30;32.50;;;;;;4886157;29;20056;-88
2021/03/02 13:43:25;;;;;;;20.02;10.00;;;28.10;32.70;;;;;;4849072;29;20057;-89
2021/03/02 13:45:53;;;;;;;14.82;8.70;;;28.50;32.50;;;;;;4837734;29;20471;-87
2021/03/02 13:48:22;;;;;;;15.45;9.05;;;28.70;32.30;;;;;;4865361;29;20049;-87
2021/03/02 13:50:51;;;;;;;19.45;9.35;;;29.00;31.60;;;;;;4883099;29;20068;-89
2021/03/02 13:53:21;;;;;;;25.42;10.48;;;29.50;31.40;;;;;;4865801;29;20068;-89
2021/03/02 13:55:52;;;;;;;17.58;9.70;;;29.70;30.70;;;;;;4866846;29;20053;-87
2021/03/02 13:58:20;;;;;;;14.63;8.75;;;29.60;30.80;;;;;;4853874;29;20090;-88
2021/03/02 14:00:48;;;;;;;13.38;9.50;;;29.40;31.40;;;;;;4853652;29;20049;-89
2021/03/02 14:03:17;;;;;;;26.67;10.52;;;29.10;31.50;;;;;;4871824;29;20065;-88
2021/03/02 14:05:45;;;;;;;12.05;7.75;;;29.40;31.40;;;;;;4855396;29;20053;-89
2021/03/02 14:08:15;;;;;;;13.50;8.20;;;29.40;31.30;;;;;;4885378;29;20063;-89
2021/03/02 14:10:48;;;;;;;14.68;9.88;;;29.00;31.40;;;;;;4872337;29;20065;-90
2021/03/02 14:13:18;;;;;;;16.83;9.25;;;29.60;30.90;;;;;;4870119;29;20057;-91
2021/03/02 14:15:48;;;;;;;15.45;7.82;;;29.80;30.80;;;;;;4856052;29;20061;-88
2021/03/02 14:18:18;;;;;;;15.52;8.32;;;29.90;30.80;;;;;;4863333;29;20049;-88
2021/03/02 14:20:46;;;;;;;15.35;9.65;;;30.00;30.90;;;;;;4837969;29;20069;-92
2021/03/02 14:23:14;;;;;;;26.48;9.45;;;30.10;30.50;;;;;;4853942;29;20488;-90
2021/03/02 14:25:42;;;;;;;15.05;8.25;;;30.10;30.40;;;;;;4853027;29;20061;-92
2021/03/02 14:28:14;;;;;;;;;;;30.40;30.70;;;;;;4857749;29;20065;-90
2021/03/02 14:30:42;;;;;;;17.38;8.88;;;30.50;30.80;;;;;;4825192;29;19935;-91
2021/03/02 14:33:11;;;;;;;26.65;10.07;;;30.50;30.90;;;;;;4854427;29;20045;-93
2021/03/02 14:35:41;;;;;;;16.90;8.85;;;30.70;30.70;;;;;;4842720;29;20060;-93
2021/03/02 14:38:13;;;;;;;15.95;11.35;;;30.80;30.90;;;;;;4842507;29;20081;-91
2021/03/02 14:40:41;;;;;;;16.17;10.23;;;30.70;30.70;;;;;;4840445;29;20499;-93
2021/03/02 14:43:15;;;;;;;21.70;11.60;;;30.60;31.20;;;;;;4871968;29;20069;-92
2021/03/02 14:45:45;;;;;;;14.25;10.10;;;30.60;31.50;;;;;;4840058;29;20400;-93
2021/03/02 14:48:18;;;;;;;16.90;11.35;;;30.70;31.70;;;;;;4845045;29;20471;-93
2021/03/02 14:50:53;;;;;;;17.10;10.18;;;30.70;31.40;;;;;;4854589;29;20071;-93